Terminal Aerodrome Forecast
Issued by NWS Binghamton, NY

Home | Current Version | Previous Version | Text Only | Print | Product List | Glossary On
Versions: 1 2 3 4 5 6 7 8 9 10 11 12 13 14 15 16 17 18 19 20 21
000
FTUS41 KBGM 291011 AAB
TAFBGM
TAF AMD
KBGM 291011Z 2910/3006 VRB03KT P6SM SKC
      TEMPO 2910/2912 2SM BR
     FM291500 17008KT P6SM SKC
     FM300000 18008KT P6SM SCT250=

USA.gov is the U.S. government's official web portal to all federal, state and local government web resources and services.